sensor_id;sensor_type;location;lat;lon;timestamp;temperature;humidity
6956;DHT22;50345;51.136;16.886;2022-08-05T00:01:20;23.90;92.00
6956;DHT22;50345;51.136;16.886;2022-08-05T00:03:47;23.80;91.30
6956;DHT22;50345;51.136;16.886;2022-08-05T00:06:13;23.80;92.40
6956;DHT22;50345;51.136;16.886;2022-08-05T00:08:39;23.70;93.80
6956;DHT22;50345;51.136;16.886;2022-08-05T00:11:10;23.70;99.00
6956;DHT22;50345;51.136;16.886;2022-08-05T00:13:37;24.00;99.90
6956;DHT22;50345;51.136;16.886;2022-08-05T00:16:04;23.70;89.70
6956;DHT22;50345;51.136;16.886;2022-08-05T00:18:30;23.70;84.30
6956;DHT22;50345;51.136;16.886;2022-08-05T00:20:56;23.60;85.60
6956;DHT22;50345;51.136;16.886;2022-08-05T00:23:22;23.50;86.50
6956;DHT22;50345;51.136;16.886;2022-08-05T00:25:48;23.50;88.10
6956;DHT22;50345;51.136;16.886;2022-08-05T00:28:14;23.40;89.40
6956;DHT22;50345;51.136;16.886;2022-08-05T00:30:40;23.40;90.30
6956;DHT22;50345;51.136;16.886;2022-08-05T00:33:06;23.40;90.80
6956;DHT22;50345;51.136;16.886;2022-08-05T00:35:32;23.30;91.20
6956;DHT22;50345;51.136;16.886;2022-08-05T00:37:57;23.20;91.50
6956;DHT22;50345;51.136;16.886;2022-08-05T00:40:24;23.20;92.20
6956;DHT22;50345;51.136;16.886;2022-08-05T00:42:50;23.20;92.80
6956;DHT22;50345;51.136;16.886;2022-08-05T00:45:16;23.20;93.40
6956;DHT22;50345;51.136;16.886;2022-08-05T00:47:42;23.20;93.70
6956;DHT22;50345;51.136;16.886;2022-08-05T00:50:08;23.20;94.00
6956;DHT22;50345;51.136;16.886;2022-08-05T00:52:33;23.10;94.30
6956;DHT22;50345;51.136;16.886;2022-08-05T00:54:59;23.10;94.50
6956;DHT22;50345;51.136;16.886;2022-08-05T00:57:25;23.10;94.80
6956;DHT22;50345;51.136;16.886;2022-08-05T00:59:50;23.10;95.60
6956;DHT22;50345;51.136;16.886;2022-08-05T01:02:16;23.00;96.10
6956;DHT22;50345;51.136;16.886;2022-08-05T01:04:42;23.00;96.10
6956;DHT22;50345;51.136;16.886;2022-08-05T01:07:07;23.00;96.30
6956;DHT22;50345;51.136;16.886;2022-08-05T01:09:33;23.00;96.40
6956;DHT22;50345;51.136;16.886;2022-08-05T01:12:03;22.90;96.70
6956;DHT22;50345;51.136;16.886;2022-08-05T01:14:32;22.90;97.00
6956;DHT22;50345;51.136;16.886;2022-08-05T01:17:04;22.80;97.00
6956;DHT22;50345;51.136;16.886;2022-08-05T01:19:43;22.80;97.40
6956;DHT22;50345;51.136;16.886;2022-08-05T01:24:51;22.70;97.80
6956;DHT22;50345;51.136;16.886;2022-08-05T01:30:10;22.70;98.10
6956;DHT22;50345;51.136;16.886;2022-08-05T01:32:38;22.70;98.50
6956;DHT22;50345;51.136;16.886;2022-08-05T01:35:11;22.60;98.70
6956;DHT22;50345;51.136;16.886;2022-08-05T01:37:44;22.60;99.10
6956;DHT22;50345;51.136;16.886;2022-08-05T01:40:11;22.60;99.20
6956;DHT22;50345;51.136;16.886;2022-08-05T01:42:38;22.60;99.40
6956;DHT22;50345;51.136;16.886;2022-08-05T01:45:07;22.50;99.60
6956;DHT22;50345;51.136;16.886;2022-08-05T01:47:34;22.50;99.80
6956;DHT22;50345;51.136;16.886;2022-08-05T01:50:03;22.50;99.90
6956;DHT22;50345;51.136;16.886;2022-08-05T01:52:30;22.50;99.90
6956;DHT22;50345;51.136;16.886;2022-08-05T01:54:59;22.40;99.90
6956;DHT22;50345;51.136;16.886;2022-08-05T01:57:33;22.40;99.90
6956;DHT22;50345;51.136;16.886;2022-08-05T02:00:02;22.40;99.90
6956;DHT22;50345;51.136;16.886;2022-08-05T02:02:30;22.40;99.90
6956;DHT22;50345;51.136;16.886;2022-08-05T02:05:03;22.30;99.90
6956;DHT22;50345;51.136;16.886;2022-08-05T02:07:32;22.30;99.90
6956;DHT22;50345;51.136;16.886;2022-08-05T02:09:58;22.30;99.90
6956;DHT22;50345;51.136;16.886;2022-08-05T02:12:37;22.20;99.90
6956;DHT22;50345;51.136;16.886;2022-08-05T02:15:14;22.20;99.90
6956;DHT22;50345;51.136;16.886;2022-08-05T02:17:57;22.20;99.90
6956;DHT22;50345;51.136;16.886;2022-08-05T02:20:26;22.20;99.90
6956;DHT22;50345;51.136;16.886;2022-08-05T02:23:02;22.10;99.90
6956;DHT22;50345;51.136;16.886;2022-08-05T02:25:33;22.10;99.90
6956;DHT22;50345;51.136;16.886;2022-08-05T02:28:01;22.00;99.90
6956;DHT22;50345;51.136;16.886;2022-08-05T02:30:34;22.00;99.90
6956;DHT22;50345;51.136;16.886;2022-08-05T02:33:04;22.00;99.90
6956;DHT22;50345;51.136;16.886;2022-08-05T02:35:32;21.90;99.90
6956;DHT22;50345;51.136;16.886;2022-08-05T02:38:01;21.90;99.90
6956;DHT22;50345;51.136;16.886;2022-08-05T02:40:27;21.90;99.90
6956;DHT22;50345;51.136;16.886;2022-08-05T02:42:54;21.90;99.90
6956;DHT22;50345;51.136;16.886;2022-08-05T02:45:21;21.90;99.90
6956;DHT22;50345;51.136;16.886;2022-08-05T02:47:47;21.80;99.90
6956;DHT22;50345;51.136;16.886;2022-08-05T02:50:14;21.80;99.90
6956;DHT22;50345;51.136;16.886;2022-08-05T02:52:41;21.70;99.90
6956;DHT22;50345;51.136;16.886;2022-08-05T02:55:08;21.70;99.90
6956;DHT22;50345;51.136;16.886;2022-08-05T02:57:37;21.70;99.90
6956;DHT22;50345;51.136;16.886;2022-08-05T03:00:03;21.70;99.90
6956;DHT22;50345;51.136;16.886;2022-08-05T03:02:33;21.60;99.90
6956;DHT22;50345;51.136;16.886;2022-08-05T03:05:01;21.60;99.90
6956;DHT22;50345;51.136;16.886;2022-08-05T03:07:28;21.50;99.90
6956;DHT22;50345;51.136;16.886;2022-08-05T03:09:54;21.50;99.90
6956;DHT22;50345;51.136;16.886;2022-08-05T03:12:32;21.50;99.90
6956;DHT22;50345;51.136;16.886;2022-08-05T03:14:58;21.50;99.90
6956;DHT22;50345;51.136;16.886;2022-08-05T03:17:24;21.40;99.90
6956;DHT22;50345;51.136;16.886;2022-08-05T03:19:50;21.40;99.90
6956;DHT22;50345;51.136;16.886;2022-08-05T03:22:16;21.40;99.90
6956;DHT22;50345;51.136;16.886;2022-08-05T03:24:45;21.30;99.90
6956;DHT22;50345;51.136;16.886;2022-08-05T03:27:12;21.30;99.90
6956;DHT22;50345;51.136;16.886;2022-08-05T03:29:38;21.30;99.90
6956;DHT22;50345;51.136;16.886;2022-08-05T03:32:08;21.20;99.90
6956;DHT22;50345;51.136;16.886;2022-08-05T03:34:35;21.20;99.90
6956;DHT22;50345;51.136;16.886;2022-08-05T03:37:02;21.20;99.90
6956;DHT22;50345;51.136;16.886;2022-08-05T03:39:28;21.20;99.90
6956;DHT22;50345;51.136;16.886;2022-08-05T03:41:55;21.20;99.90
6956;DHT22;50345;51.136;16.886;2022-08-05T03:44:20;21.20;99.90
6956;DHT22;50345;51.136;16.886;2022-08-05T03:46:46;21.20;99.90
6956;DHT22;50345;51.136;16.886;2022-08-05T03:49:12;21.20;99.90
6956;DHT22;50345;51.136;16.886;2022-08-05T03:51:42;21.20;99.90
6956;DHT22;50345;51.136;16.886;2022-08-05T03:54:16;21.20;99.90
6956;DHT22;50345;51.136;16.886;2022-08-05T03:56:45;21.20;99.90
6956;DHT22;50345;51.136;16.886;2022-08-05T03:59:36;21.20;99.90
6956;DHT22;50345;51.136;16.886;2022-08-05T04:02:03;21.20;99.90
6956;DHT22;50345;51.136;16.886;2022-08-05T04:04:31;21.20;99.90
6956;DHT22;50345;51.136;16.886;2022-08-05T04:06:58;21.20;99.90
6956;DHT22;50345;51.136;16.886;2022-08-05T04:09:25;21.20;99.90
6956;DHT22;50345;51.136;16.886;2022-08-05T04:11:51;21.20;99.90
6956;DHT22;50345;51.136;16.886;2022-08-05T04:14:18;21.30;99.90
6956;DHT22;50345;51.136;16.886;2022-08-05T04:16:44;21.30;99.90
6956;DHT22;50345;51.136;16.886;2022-08-05T04:19:13;21.30;99.90
6956;DHT22;50345;51.136;16.886;2022-08-05T04:21:39;21.30;99.90
6956;DHT22;50345;51.136;16.886;2022-08-05T04:24:06;21.30;99.90
6956;DHT22;50345;51.136;16.886;2022-08-05T04:26:32;21.40;99.90
6956;DHT22;50345;51.136;16.886;2022-08-05T04:28:59;21.40;99.90
6956;DHT22;50345;51.136;16.886;2022-08-05T04:31:24;21.40;99.90
6956;DHT22;50345;51.136;16.886;2022-08-05T04:33:50;21.40;99.90
6956;DHT22;50345;51.136;16.886;2022-08-05T04:36:15;21.50;99.90
6956;DHT22;50345;51.136;16.886;2022-08-05T04:38:42;21.50;99.90
6956;DHT22;50345;51.136;16.886;2022-08-05T04:41:07;21.50;99.90
6956;DHT22;50345;51.136;16.886;2022-08-05T04:43:33;21.50;99.90
6956;DHT22;50345;51.136;16.886;2022-08-05T04:45:59;21.50;99.90
6956;DHT22;50345;51.136;16.886;2022-08-05T04:48:25;21.60;99.90
6956;DHT22;50345;51.136;16.886;2022-08-05T04:50:50;21.60;99.90
6956;DHT22;50345;51.136;16.886;2022-08-05T04:53:17;21.60;99.90
6956;DHT22;50345;51.136;16.886;2022-08-05T04:55:44;21.70;99.90
6956;DHT22;50345;51.136;16.886;2022-08-05T04:58:11;21.70;99.90
6956;DHT22;50345;51.136;16.886;2022-08-05T05:00:38;21.70;99.90
6956;DHT22;50345;51.136;16.886;2022-08-05T05:03:05;21.80;99.90
6956;DHT22;50345;51.136;16.886;2022-08-05T05:05:32;21.90;99.90
6956;DHT22;50345;51.136;16.886;2022-08-05T05:08:06;21.90;99.90
6956;DHT22;50345;51.136;16.886;2022-08-05T05:10:37;22.00;99.90
6956;DHT22;50345;51.136;16.886;2022-08-05T05:13:02;22.00;99.90
6956;DHT22;50345;51.136;16.886;2022-08-05T05:15:28;22.10;99.90
6956;DHT22;50345;51.136;16.886;2022-08-05T05:17:53;22.10;99.90
6956;DHT22;50345;51.136;16.886;2022-08-05T05:20:19;22.10;99.90
6956;DHT22;50345;51.136;16.886;2022-08-05T05:22:45;22.20;99.90
6956;DHT22;50345;51.136;16.886;2022-08-05T05:25:11;22.20;99.90
6956;DHT22;50345;51.136;16.886;2022-08-05T05:27:38;22.20;99.90
6956;DHT22;50345;51.136;16.886;2022-08-05T05:30:04;22.30;99.90
6956;DHT22;50345;51.136;16.886;2022-08-05T05:32:30;22.30;99.90
6956;DHT22;50345;51.136;16.886;2022-08-05T05:34:55;22.40;99.90
6956;DHT22;50345;51.136;16.886;2022-08-05T05:37:21;22.40;99.90
6956;DHT22;50345;51.136;16.886;2022-08-05T05:39:46;22.50;99.90
6956;DHT22;50345;51.136;16.886;2022-08-05T05:42:12;22.60;99.90
6956;DHT22;50345;51.136;16.886;2022-08-05T05:44:37;22.60;99.90
6956;DHT22;50345;51.136;16.886;2022-08-05T05:47:03;22.70;99.90
6956;DHT22;50345;51.136;16.886;2022-08-05T05:49:29;22.70;99.90
6956;DHT22;50345;51.136;16.886;2022-08-05T05:51:54;22.80;99.90
6956;DHT22;50345;51.136;16.886;2022-08-05T05:54:20;22.90;99.90
6956;DHT22;50345;51.136;16.886;2022-08-05T05:56:46;22.90;99.90
6956;DHT22;50345;51.136;16.886;2022-08-05T05:59:12;23.00;99.90
6956;DHT22;50345;51.136;16.886;2022-08-05T06:01:39;23.10;99.90
6956;DHT22;50345;51.136;16.886;2022-08-05T06:04:11;23.10;99.90
6956;DHT22;50345;51.136;16.886;2022-08-05T06:06:41;23.20;99.90
6956;DHT22;50345;51.136;16.886;2022-08-05T06:09:07;23.30;99.90
6956;DHT22;50345;51.136;16.886;2022-08-05T06:11:33;23.40;99.90
6956;DHT22;50345;51.136;16.886;2022-08-05T06:13:59;23.40;99.90
6956;DHT22;50345;51.136;16.886;2022-08-05T06:18:51;23.60;99.90
6956;DHT22;50345;51.136;16.886;2022-08-05T06:21:17;23.70;99.90
6956;DHT22;50345;51.136;16.886;2022-08-05T06:23:42;23.80;99.90
6956;DHT22;50345;51.136;16.886;2022-08-05T06:26:08;23.90;99.90
6956;DHT22;50345;51.136;16.886;2022-08-05T06:31:01;24.20;99.90
6956;DHT22;50345;51.136;16.886;2022-08-05T06:33:27;24.20;99.90
6956;DHT22;50345;51.136;16.886;2022-08-05T06:35:52;24.30;99.90
6956;DHT22;50345;51.136;16.886;2022-08-05T06:40:44;24.40;99.90
6956;DHT22;50345;51.136;16.886;2022-08-05T06:48:01;24.30;99.90
6956;DHT22;50345;51.136;16.886;2022-08-05T06:50:27;24.60;99.90
6956;DHT22;50345;51.136;16.886;2022-08-05T06:52:52;24.60;99.90
6956;DHT22;50345;51.136;16.886;2022-08-05T06:55:18;24.70;99.90
6956;DHT22;50345;51.136;16.886;2022-08-05T06:57:44;24.80;99.90
6956;DHT22;50345;51.136;16.886;2022-08-05T07:00:10;24.90;99.90
6956;DHT22;50345;51.136;16.886;2022-08-05T07:02:43;25.00;99.90
6956;DHT22;50345;51.136;16.886;2022-08-05T07:05:09;25.10;99.90
6956;DHT22;50345;51.136;16.886;2022-08-05T07:07:36;25.20;99.90
6956;DHT22;50345;51.136;16.886;2022-08-05T07:10:01;25.30;99.90
6956;DHT22;50345;51.136;16.886;2022-08-05T07:12:27;25.40;99.90
6956;DHT22;50345;51.136;16.886;2022-08-05T07:15:11;25.60;99.70
6956;DHT22;50345;51.136;16.886;2022-08-05T07:17:55;25.70;99.20
6956;DHT22;50345;51.136;16.886;2022-08-05T07:20:20;25.80;99.50
6956;DHT22;50345;51.136;16.886;2022-08-05T07:22:46;25.90;99.90
6956;DHT22;50345;51.136;16.886;2022-08-05T07:25:11;26.10;98.70
6956;DHT22;50345;51.136;16.886;2022-08-05T07:27:37;26.10;98.10
6956;DHT22;50345;51.136;16.886;2022-08-05T07:30:03;26.20;97.00
6956;DHT22;50345;51.136;16.886;2022-08-05T07:32:36;26.30;96.70
6956;DHT22;50345;51.136;16.886;2022-08-05T07:35:09;26.30;97.80
6956;DHT22;50345;51.136;16.886;2022-08-05T07:37:35;26.50;95.70
6956;DHT22;50345;51.136;16.886;2022-08-05T07:40:02;26.60;94.40
6956;DHT22;50345;51.136;16.886;2022-08-05T07:42:27;26.70;95.20
6956;DHT22;50345;51.136;16.886;2022-08-05T07:44:53;26.70;93.90
6956;DHT22;50345;51.136;16.886;2022-08-05T07:47:20;26.90;95.30
6956;DHT22;50345;51.136;16.886;2022-08-05T07:49:47;27.00;91.90
6956;DHT22;50345;51.136;16.886;2022-08-05T07:52:13;27.10;92.90
6956;DHT22;50345;51.136;16.886;2022-08-05T07:54:38;27.20;93.30
6956;DHT22;50345;51.136;16.886;2022-08-05T07:57:04;27.30;93.10
6956;DHT22;50345;51.136;16.886;2022-08-05T07:59:29;27.50;91.40
6956;DHT22;50345;51.136;16.886;2022-08-05T11:15:15;44.20;26.80
6956;DHT22;50345;51.136;16.886;2022-08-05T11:17:46;44.50;26.30
6956;DHT22;50345;51.136;16.886;2022-08-05T12:13:37;51.50;19.40
6956;DHT22;50345;51.136;16.886;2022-08-05T12:16:05;51.50;20.00
6956;DHT22;50345;51.136;16.886;2022-08-05T12:18:34;51.30;20.50
6956;DHT22;50345;51.136;16.886;2022-08-05T12:21:12;51.10;20.70
6956;DHT22;50345;51.136;16.886;2022-08-05T12:23:38;51.10;20.60
6956;DHT22;50345;51.136;16.886;2022-08-05T12:26:04;51.10;20.00
6956;DHT22;50345;51.136;16.886;2022-08-05T12:28:34;51.10;20.50
6956;DHT22;50345;51.136;16.886;2022-08-05T12:31:01;51.10;20.30
6956;DHT22;50345;51.136;16.886;2022-08-05T12:33:27;51.00;20.40
6956;DHT22;50345;51.136;16.886;2022-08-05T12:35:54;51.10;19.70
6956;DHT22;50345;51.136;16.886;2022-08-05T12:38:21;51.00;20.00
6956;DHT22;50345;51.136;16.886;2022-08-05T12:40:47;51.00;20.10
6956;DHT22;50345;51.136;16.886;2022-08-05T12:43:13;51.20;19.80
6956;DHT22;50345;51.136;16.886;2022-08-05T12:45:58;50.70;19.60
6956;DHT22;50345;51.136;16.886;2022-08-05T12:48:23;50.10;26.00
6956;DHT22;50345;51.136;16.886;2022-08-05T12:51:08;50.20;27.80
6956;DHT22;50345;51.136;16.886;2022-08-05T12:53:43;50.50;27.40
6956;DHT22;50345;51.136;16.886;2022-08-05T12:56:39;50.60;33.20
6956;DHT22;50345;51.136;16.886;2022-08-05T13:01:43;51.10;19.70
6956;DHT22;50345;51.136;16.886;2022-08-05T13:04:10;51.40;19.30
6956;DHT22;50345;51.136;16.886;2022-08-05T13:06:40;51.40;19.20
6956;DHT22;50345;51.136;16.886;2022-08-05T13:09:08;51.40;19.20
6956;DHT22;50345;51.136;16.886;2022-08-05T13:11:40;51.30;19.40
6956;DHT22;50345;51.136;16.886;2022-08-05T13:14:21;51.20;19.00
6956;DHT22;50345;51.136;16.886;2022-08-05T13:16:48;51.10;19.60
6956;DHT22;50345;51.136;16.886;2022-08-05T13:19:14;51.20;19.40
6956;DHT22;50345;51.136;16.886;2022-08-05T13:21:40;51.40;19.60
6956;DHT22;50345;51.136;16.886;2022-08-05T13:26:32;51.70;18.40
6956;DHT22;50345;51.136;16.886;2022-08-05T13:28:58;51.40;19.10
6956;DHT22;50345;51.136;16.886;2022-08-05T13:31:24;51.50;18.80
6956;DHT22;50345;51.136;16.886;2022-08-05T13:33:49;51.70;18.80
6956;DHT22;50345;51.136;16.886;2022-08-05T13:36:15;51.80;19.00
6956;DHT22;50345;51.136;16.886;2022-08-05T13:38:40;52.00;19.30
6956;DHT22;50345;51.136;16.886;2022-08-05T13:41:06;51.60;19.60
6956;DHT22;50345;51.136;16.886;2022-08-05T13:45:58;50.50;19.00
6956;DHT22;50345;51.136;16.886;2022-08-05T13:48:23;50.40;20.30
6956;DHT22;50345;51.136;16.886;2022-08-05T13:50:49;50.60;19.50
6956;DHT22;50345;51.136;16.886;2022-08-05T13:53:14;50.60;20.00
6956;DHT22;50345;51.136;16.886;2022-08-05T13:55:40;50.80;19.90
6956;DHT22;50345;51.136;16.886;2022-08-05T13:58:05;50.90;20.10
6956;DHT22;50345;51.136;16.886;2022-08-05T14:00:31;51.20;20.00
6956;DHT22;50345;51.136;16.886;2022-08-05T14:02:57;51.50;20.40
6956;DHT22;50345;51.136;16.886;2022-08-05T14:05:22;52.00;21.60
6956;DHT22;50345;51.136;16.886;2022-08-05T14:07:48;52.20;20.90
6956;DHT22;50345;51.136;16.886;2022-08-05T14:10:20;52.50;21.10
6956;DHT22;50345;51.136;16.886;2022-08-05T14:12:49;52.80;19.10
6956;DHT22;50345;51.136;16.886;2022-08-05T14:15:15;52.90;19.50
6956;DHT22;50345;51.136;16.886;2022-08-05T14:17:41;53.10;18.90
6956;DHT22;50345;51.136;16.886;2022-08-05T14:20:07;52.90;18.70
6956;DHT22;50345;51.136;16.886;2022-08-05T14:22:33;52.80;20.40
6956;DHT22;50345;51.136;16.886;2022-08-05T14:24:59;53.00;19.70
6956;DHT22;50345;51.136;16.886;2022-08-05T14:27:25;53.10;19.10
6956;DHT22;50345;51.136;16.886;2022-08-05T14:29:51;53.30;18.50
6956;DHT22;50345;51.136;16.886;2022-08-05T14:32:17;52.90;17.70
6956;DHT22;50345;51.136;16.886;2022-08-05T14:34:42;52.50;18.20
6956;DHT22;50345;51.136;16.886;2022-08-05T14:37:08;52.40;17.80
6956;DHT22;50345;51.136;16.886;2022-08-05T14:39:34;52.20;18.10
6956;DHT22;50345;51.136;16.886;2022-08-05T14:41:59;52.30;18.70
6956;DHT22;50345;51.136;16.886;2022-08-05T14:44:25;52.50;18.30
6956;DHT22;50345;51.136;16.886;2022-08-05T14:46:50;52.70;18.40
6956;DHT22;50345;51.136;16.886;2022-08-05T14:49:16;52.90;18.30
6956;DHT22;50345;51.136;16.886;2022-08-05T14:51:42;53.10;18.20
6956;DHT22;50345;51.136;16.886;2022-08-05T14:54:08;53.10;18.10
6956;DHT22;50345;51.136;16.886;2022-08-05T14:56:34;53.20;17.90
6956;DHT22;50345;51.136;16.886;2022-08-05T14:59:00;53.40;18.60
6956;DHT22;50345;51.136;16.886;2022-08-05T15:01:26;53.70;17.80
6956;DHT22;50345;51.136;16.886;2022-08-05T15:03:52;53.70;17.30
6956;DHT22;50345;51.136;16.886;2022-08-05T15:06:17;53.20;17.50
6956;DHT22;50345;51.136;16.886;2022-08-05T15:08:44;52.80;17.80
6956;DHT22;50345;51.136;16.886;2022-08-05T15:11:10;52.60;18.10
6956;DHT22;50345;51.136;16.886;2022-08-05T15:13:35;52.70;17.90
6956;DHT22;50345;51.136;16.886;2022-08-05T15:16:01;52.70;18.00
6956;DHT22;50345;51.136;16.886;2022-08-05T15:18:27;52.80;18.30
6956;DHT22;50345;51.136;16.886;2022-08-05T15:20:53;52.80;18.60
6956;DHT22;50345;51.136;16.886;2022-08-05T15:23:18;52.20;18.60
6956;DHT22;50345;51.136;16.886;2022-08-05T15:25:44;51.70;18.70
6956;DHT22;50345;51.136;16.886;2022-08-05T15:28:11;51.40;18.50
6956;DHT22;50345;51.136;16.886;2022-08-05T15:30:36;51.20;18.90
6956;DHT22;50345;51.136;16.886;2022-08-05T15:33:03;51.10;18.90
6956;DHT22;50345;51.136;16.886;2022-08-05T15:35:28;50.80;19.20
6956;DHT22;50345;51.136;16.886;2022-08-05T15:37:54;50.10;19.80
6956;DHT22;50345;51.136;16.886;2022-08-05T15:40:20;49.50;19.40
6956;DHT22;50345;51.136;16.886;2022-08-05T15:42:46;49.30;20.00
6956;DHT22;50345;51.136;16.886;2022-08-05T15:45:12;49.10;21.30
6956;DHT22;50345;51.136;16.886;2022-08-05T15:47:41;49.20;21.60
6956;DHT22;50345;51.136;16.886;2022-08-05T15:50:09;49.40;21.80
6956;DHT22;50345;51.136;16.886;2022-08-05T15:52:35;49.50;21.30
6956;DHT22;50345;51.136;16.886;2022-08-05T15:55:03;49.60;21.90
6956;DHT22;50345;51.136;16.886;2022-08-05T15:57:29;49.50;20.70
6956;DHT22;50345;51.136;16.886;2022-08-05T15:59:55;49.00;20.80
6956;DHT22;50345;51.136;16.886;2022-08-05T16:26:53;46.60;21.10
6956;DHT22;50345;51.136;16.886;2022-08-05T16:29:20;46.60;21.30
6956;DHT22;50345;51.136;16.886;2022-08-05T16:34:13;45.60;21.80
6956;DHT22;50345;51.136;16.886;2022-08-05T16:39:05;44.20;23.20
6956;DHT22;50345;51.136;16.886;2022-08-05T16:41:31;43.30;24.10
6956;DHT22;50345;51.136;16.886;2022-08-05T16:43:56;42.50;24.90
6956;DHT22;50345;51.136;16.886;2022-08-05T16:46:22;41.70;25.50
6956;DHT22;50345;51.136;16.886;2022-08-05T21:51:33;26.10;99.90
6956;DHT22;50345;51.136;16.886;2022-08-05T21:56:24;25.70;99.90
6956;DHT22;50345;51.136;16.886;2022-08-05T21:58:50;25.50;99.90
6956;DHT22;50345;51.136;16.886;2022-08-05T22:03:41;25.20;99.90
6956;DHT22;50345;51.136;16.886;2022-08-05T22:06:07;25.20;99.90
6956;DHT22;50345;51.136;16.886;2022-08-05T22:08:33;25.10;99.90
6956;DHT22;50345;51.136;16.886;2022-08-05T22:10:58;24.90;99.90
6956;DHT22;50345;51.136;16.886;2022-08-05T22:13:24;24.70;99.90
6956;DHT22;50345;51.136;16.886;2022-08-05T22:15:50;24.60;99.90
6956;DHT22;50345;51.136;16.886;2022-08-05T22:18:15;24.50;99.90
6956;DHT22;50345;51.136;16.886;2022-08-05T22:20:42;24.50;99.90
6956;DHT22;50345;51.136;16.886;2022-08-05T22:23:08;24.50;99.90
6956;DHT22;50345;51.136;16.886;2022-08-05T22:25:52;24.40;99.90
6956;DHT22;50345;51.136;16.886;2022-08-05T22:28:36;24.30;99.90
6956;DHT22;50345;51.136;16.886;2022-08-05T22:31:01;24.30;99.90
6956;DHT22;50345;51.136;16.886;2022-08-05T22:33:27;24.20;99.90
6956;DHT22;50345;51.136;16.886;2022-08-05T22:35:53;24.20;99.90
6956;DHT22;50345;51.136;16.886;2022-08-05T22:38:19;24.10;99.90
6956;DHT22;50345;51.136;16.886;2022-08-05T22:40:44;24.10;99.90
6956;DHT22;50345;51.136;16.886;2022-08-05T22:43:10;24.00;99.90
6956;DHT22;50345;51.136;16.886;2022-08-05T22:45:36;24.00;99.90
6956;DHT22;50345;51.136;16.886;2022-08-05T22:48:01;24.00;99.90
6956;DHT22;50345;51.136;16.886;2022-08-05T22:50:27;23.90;99.90
6956;DHT22;50345;51.136;16.886;2022-08-05T22:52:53;23.80;99.90
6956;DHT22;50345;51.136;16.886;2022-08-05T22:55:19;23.80;99.90
6956;DHT22;50345;51.136;16.886;2022-08-05T22:57:44;23.70;99.90
6956;DHT22;50345;51.136;16.886;2022-08-05T23:00:11;23.60;99.90
6956;DHT22;50345;51.136;16.886;2022-08-05T23:02:37;23.60;99.90
6956;DHT22;50345;51.136;16.886;2022-08-05T23:05:03;23.50;99.90
6956;DHT22;50345;51.136;16.886;2022-08-05T23:07:29;23.50;99.90
6956;DHT22;50345;51.136;16.886;2022-08-05T23:09:55;23.50;99.90
6956;DHT22;50345;51.136;16.886;2022-08-05T23:12:20;23.50;99.90
6956;DHT22;50345;51.136;16.886;2022-08-05T23:14:48;23.50;99.90
6956;DHT22;50345;51.136;16.886;2022-08-05T23:17:14;23.40;99.90
6956;DHT22;50345;51.136;16.886;2022-08-05T23:19:54;23.40;99.90
6956;DHT22;50345;51.136;16.886;2022-08-05T23:22:21;23.40;99.90
6956;DHT22;50345;51.136;16.886;2022-08-05T23:24:48;23.50;99.90
6956;DHT22;50345;51.136;16.886;2022-08-05T23:27:14;23.50;99.90
6956;DHT22;50345;51.136;16.886;2022-08-05T23:29:40;23.50;99.90
6956;DHT22;50345;51.136;16.886;2022-08-05T23:32:06;23.50;99.90
6956;DHT22;50345;51.136;16.886;2022-08-05T23:34:32;23.50;99.90
6956;DHT22;50345;51.136;16.886;2022-08-05T23:36:58;23.50;99.90
6956;DHT22;50345;51.136;16.886;2022-08-05T23:39:23;23.50;99.90
6956;DHT22;50345;51.136;16.886;2022-08-05T23:41:49;23.50;99.90
6956;DHT22;50345;51.136;16.886;2022-08-05T23:44:15;23.50;99.90
6956;DHT22;50345;51.136;16.886;2022-08-05T23:46:41;23.50;99.90
6956;DHT22;50345;51.136;16.886;2022-08-05T23:49:07;23.60;99.90
6956;DHT22;50345;51.136;16.886;2022-08-05T23:51:34;23.60;99.90
6956;DHT22;50345;51.136;16.886;2022-08-05T23:54:19;23.60;99.90
6956;DHT22;50345;51.136;16.886;2022-08-05T23:56:45;23.60;99.90
6956;DHT22;50345;51.136;16.886;2022-08-05T23:59:10;23.60;99.90
